sensor_id;sensor_type;location;lat;lon;timestamp;P1;durP1;ratioP1;P2;durP2;ratioP2
49416;SDS011;35290;39.550;8.786;2022-11-30T00:00:52;13.90;;;6.65;;
49416;SDS011;35290;39.550;8.786;2022-11-30T00:03:19;13.73;;;6.53;;
49416;SDS011;35290;39.550;8.786;2022-11-30T00:05:45;14.15;;;6.50;;
49416;SDS011;35290;39.550;8.786;2022-11-30T00:08:11;15.60;;;7.30;;
49416;SDS011;35290;39.550;8.786;2022-11-30T00:10:37;13.85;;;7.18;;
49416;SDS011;35290;39.550;8.786;2022-11-30T00:13:04;13.82;;;6.95;;
49416;SDS011;35290;39.550;8.786;2022-11-30T00:15:29;10.68;;;6.28;;
49416;SDS011;35290;39.550;8.786;2022-11-30T00:17:55;15.30;;;6.40;;
49416;SDS011;35290;39.550;8.786;2022-11-30T00:20:21;12.95;;;6.65;;
49416;SDS011;35290;39.550;8.786;2022-11-30T00:22:47;11.50;;;6.53;;
49416;SDS011;35290;39.550;8.786;2022-11-30T00:25:12;12.10;;;6.05;;
49416;SDS011;35290;39.550;8.786;2022-11-30T00:27:38;11.27;;;6.40;;
49416;SDS011;35290;39.550;8.786;2022-11-30T00:30:04;11.70;;;6.07;;
49416;SDS011;35290;39.550;8.786;2022-11-30T00:32:30;12.20;;;5.78;;
49416;SDS011;35290;39.550;8.786;2022-11-30T00:34:56;9.90;;;4.85;;
49416;SDS011;35290;39.550;8.786;2022-11-30T00:37:21;11.35;;;4.85;;
49416;SDS011;35290;39.550;8.786;2022-11-30T00:39:47;7.28;;;4.50;;
49416;SDS011;35290;39.550;8.786;2022-11-30T00:42:13;7.53;;;3.85;;
49416;SDS011;35290;39.550;8.786;2022-11-30T00:44:38;11.38;;;3.63;;
49416;SDS011;35290;39.550;8.786;2022-11-30T00:47:04;6.85;;;3.63;;
49416;SDS011;35290;39.550;8.786;2022-11-30T00:49:29;5.82;;;3.25;;
49416;SDS011;35290;39.550;8.786;2022-11-30T00:51:55;9.20;;;3.45;;
49416;SDS011;35290;39.550;8.786;2022-11-30T00:54:20;8.57;;;3.15;;
49416;SDS011;35290;39.550;8.786;2022-11-30T00:56:46;8.48;;;3.47;;
49416;SDS011;35290;39.550;8.786;2022-11-30T00:59:11;7.45;;;4.10;;
49416;SDS011;35290;39.550;8.786;2022-11-30T01:01:37;9.50;;;4.28;;
49416;SDS011;35290;39.550;8.786;2022-11-30T01:04:02;8.95;;;4.05;;
49416;SDS011;35290;39.550;8.786;2022-11-30T01:06:29;9.13;;;4.63;;
49416;SDS011;35290;39.550;8.786;2022-11-30T01:08:54;10.13;;;4.40;;
49416;SDS011;35290;39.550;8.786;2022-11-30T01:11:20;8.80;;;4.20;;
49416;SDS011;35290;39.550;8.786;2022-11-30T01:13:47;9.27;;;4.40;;
49416;SDS011;35290;39.550;8.786;2022-11-30T01:16:14;9.65;;;4.80;;
49416;SDS011;35290;39.550;8.786;2022-11-30T01:18:41;6.80;;;4.10;;
49416;SDS011;35290;39.550;8.786;2022-11-30T01:21:08;10.32;;;4.55;;
49416;SDS011;35290;39.550;8.786;2022-11-30T01:23:34;10.02;;;4.18;;
49416;SDS011;35290;39.550;8.786;2022-11-30T01:26:00;6.93;;;3.47;;
49416;SDS011;35290;39.550;8.786;2022-11-30T01:28:25;8.25;;;3.50;;
49416;SDS011;35290;39.550;8.786;2022-11-30T01:30:55;7.90;;;3.72;;
49416;SDS011;35290;39.550;8.786;2022-11-30T01:33:22;7.05;;;3.88;;
49416;SDS011;35290;39.550;8.786;2022-11-30T01:35:47;8.10;;;4.40;;
49416;SDS011;35290;39.550;8.786;2022-11-30T01:38:13;9.10;;;4.88;;
49416;SDS011;35290;39.550;8.786;2022-11-30T01:40:38;9.30;;;4.88;;
49416;SDS011;35290;39.550;8.786;2022-11-30T01:43:08;7.57;;;4.28;;
49416;SDS011;35290;39.550;8.786;2022-11-30T01:45:35;8.27;;;4.80;;
49416;SDS011;35290;39.550;8.786;2022-11-30T01:48:00;10.32;;;4.35;;
49416;SDS011;35290;39.550;8.786;2022-11-30T01:50:27;7.85;;;3.92;;
49416;SDS011;35290;39.550;8.786;2022-11-30T01:52:55;7.15;;;4.28;;
49416;SDS011;35290;39.550;8.786;2022-11-30T01:55:32;6.25;;;4.10;;
49416;SDS011;35290;39.550;8.786;2022-11-30T02:00:33;7.78;;;4.35;;
49416;SDS011;35290;39.550;8.786;2022-11-30T02:05:35;10.93;;;5.05;;
49416;SDS011;35290;39.550;8.786;2022-11-30T02:08:03;12.52;;;6.85;;
49416;SDS011;35290;39.550;8.786;2022-11-30T02:10:30;8.88;;;5.30;;
49416;SDS011;35290;39.550;8.786;2022-11-30T02:29:15;8.05;;;4.03;;
49416;SDS011;35290;39.550;8.786;2022-11-30T02:31:43;6.95;;;3.97;;
49416;SDS011;35290;39.550;8.786;2022-11-30T02:34:14;7.13;;;3.60;;
49416;SDS011;35290;39.550;8.786;2022-11-30T02:36:40;7.13;;;3.53;;
49416;SDS011;35290;39.550;8.786;2022-11-30T02:39:06;7.28;;;3.80;;
49416;SDS011;35290;39.550;8.786;2022-11-30T02:41:35;8.02;;;3.20;;
49416;SDS011;35290;39.550;8.786;2022-11-30T02:44:03;6.53;;;3.20;;
49416;SDS011;35290;39.550;8.786;2022-11-30T02:46:33;9.30;;;3.67;;
49416;SDS011;35290;39.550;8.786;2022-11-30T02:52:07;4.90;;;3.55;;
49416;SDS011;35290;39.550;8.786;2022-11-30T02:54:34;7.80;;;3.60;;
49416;SDS011;35290;39.550;8.786;2022-11-30T02:56:59;9.18;;;4.50;;
49416;SDS011;35290;39.550;8.786;2022-11-30T02:59:24;9.27;;;3.97;;
49416;SDS011;35290;39.550;8.786;2022-11-30T03:01:50;6.10;;;3.70;;
49416;SDS011;35290;39.550;8.786;2022-11-30T03:04:16;6.53;;;3.65;;
49416;SDS011;35290;39.550;8.786;2022-11-30T03:06:41;7.05;;;3.20;;
49416;SDS011;35290;39.550;8.786;2022-11-30T03:09:07;7.15;;;3.25;;
49416;SDS011;35290;39.550;8.786;2022-11-30T03:11:33;5.90;;;3.15;;
49416;SDS011;35290;39.550;8.786;2022-11-30T03:13:58;8.45;;;3.13;;
49416;SDS011;35290;39.550;8.786;2022-11-30T03:16:24;6.93;;;3.25;;
49416;SDS011;35290;39.550;8.786;2022-11-30T03:18:49;7.70;;;3.15;;
49416;SDS011;35290;39.550;8.786;2022-11-30T03:21:15;6.53;;;3.17;;
49416;SDS011;35290;39.550;8.786;2022-11-30T03:23:40;7.28;;;2.88;;
49416;SDS011;35290;39.550;8.786;2022-11-30T03:26:06;8.00;;;2.85;;
49416;SDS011;35290;39.550;8.786;2022-11-30T03:28:33;8.50;;;3.88;;
49416;SDS011;35290;39.550;8.786;2022-11-30T03:30:59;8.38;;;4.55;;
49416;SDS011;35290;39.550;8.786;2022-11-30T03:33:24;9.32;;;4.20;;
49416;SDS011;35290;39.550;8.786;2022-11-30T03:36:04;9.35;;;4.50;;
49416;SDS011;35290;39.550;8.786;2022-11-30T03:38:32;8.88;;;5.00;;
49416;SDS011;35290;39.550;8.786;2022-11-30T03:41:02;10.85;;;4.78;;
49416;SDS011;35290;39.550;8.786;2022-11-30T03:43:29;7.30;;;3.80;;
49416;SDS011;35290;39.550;8.786;2022-11-30T03:45:55;7.00;;;3.50;;
49416;SDS011;35290;39.550;8.786;2022-11-30T03:48:20;7.35;;;3.03;;
49416;SDS011;35290;39.550;8.786;2022-11-30T03:50:47;5.22;;;2.97;;
49416;SDS011;35290;39.550;8.786;2022-11-30T03:53:17;8.38;;;3.22;;
49416;SDS011;35290;39.550;8.786;2022-11-30T03:55:44;6.05;;;3.03;;
49416;SDS011;35290;39.550;8.786;2022-11-30T03:58:10;5.35;;;2.65;;
49416;SDS011;35290;39.550;8.786;2022-11-30T04:00:36;4.10;;;2.15;;
49416;SDS011;35290;39.550;8.786;2022-11-30T04:03:02;3.78;;;2.03;;
49416;SDS011;35290;39.550;8.786;2022-11-30T04:05:28;8.18;;;1.88;;
49416;SDS011;35290;39.550;8.786;2022-11-30T04:07:54;3.53;;;1.77;;
49416;SDS011;35290;39.550;8.786;2022-11-30T04:10:19;2.65;;;1.50;;
49416;SDS011;35290;39.550;8.786;2022-11-30T04:12:45;3.97;;;1.40;;
49416;SDS011;35290;39.550;8.786;2022-11-30T04:15:10;2.47;;;1.30;;
49416;SDS011;35290;39.550;8.786;2022-11-30T04:17:36;4.50;;;1.40;;
49416;SDS011;35290;39.550;8.786;2022-11-30T04:20:02;3.38;;;1.30;;
49416;SDS011;35290;39.550;8.786;2022-11-30T04:22:28;2.63;;;1.30;;
49416;SDS011;35290;39.550;8.786;2022-11-30T04:24:54;4.18;;;1.40;;
49416;SDS011;35290;39.550;8.786;2022-11-30T04:27:19;1.50;;;1.15;;
49416;SDS011;35290;39.550;8.786;2022-11-30T04:29:45;2.10;;;1.35;;
49416;SDS011;35290;39.550;8.786;2022-11-30T04:32:11;3.50;;;1.50;;
49416;SDS011;35290;39.550;8.786;2022-11-30T04:34:36;3.58;;;1.30;;
49416;SDS011;35290;39.550;8.786;2022-11-30T04:37:02;1.75;;;1.15;;
49416;SDS011;35290;39.550;8.786;2022-11-30T04:39:27;3.47;;;1.17;;
49416;SDS011;35290;39.550;8.786;2022-11-30T04:41:53;2.53;;;1.10;;
49416;SDS011;35290;39.550;8.786;2022-11-30T04:44:19;2.88;;;2.08;;
49416;SDS011;35290;39.550;8.786;2022-11-30T04:46:44;2.47;;;1.58;;
49416;SDS011;35290;39.550;8.786;2022-11-30T04:49:10;4.63;;;1.45;;
49416;SDS011;35290;39.550;8.786;2022-11-30T04:51:35;8.45;;;1.30;;
49416;SDS011;35290;39.550;8.786;2022-11-30T04:54:01;2.92;;;1.00;;
49416;SDS011;35290;39.550;8.786;2022-11-30T04:56:26;2.00;;;1.15;;
49416;SDS011;35290;39.550;8.786;2022-11-30T04:58:52;1.48;;;1.13;;
49416;SDS011;35290;39.550;8.786;2022-11-30T05:01:17;4.80;;;1.00;;
49416;SDS011;35290;39.550;8.786;2022-11-30T05:03:43;0.93;;;0.82;;
49416;SDS011;35290;39.550;8.786;2022-11-30T05:06:08;2.45;;;1.05;;
49416;SDS011;35290;39.550;8.786;2022-11-30T05:08:34;1.40;;;0.80;;
49416;SDS011;35290;39.550;8.786;2022-11-30T05:10:59;1.40;;;1.10;;
49416;SDS011;35290;39.550;8.786;2022-11-30T05:13:25;2.58;;;1.20;;
49416;SDS011;35290;39.550;8.786;2022-11-30T05:15:50;2.67;;;1.52;;
49416;SDS011;35290;39.550;8.786;2022-11-30T05:18:17;4.13;;;1.30;;
49416;SDS011;35290;39.550;8.786;2022-11-30T05:20:49;3.75;;;1.58;;
49416;SDS011;35290;39.550;8.786;2022-11-30T05:23:16;4.80;;;2.03;;
49416;SDS011;35290;39.550;8.786;2022-11-30T05:25:41;7.38;;;2.05;;
49416;SDS011;35290;39.550;8.786;2022-11-30T05:28:07;3.50;;;1.90;;
49416;SDS011;35290;39.550;8.786;2022-11-30T05:30:33;5.15;;;2.03;;
49416;SDS011;35290;39.550;8.786;2022-11-30T05:32:59;4.10;;;1.95;;
49416;SDS011;35290;39.550;8.786;2022-11-30T05:35:24;3.42;;;2.17;;
49416;SDS011;35290;39.550;8.786;2022-11-30T05:37:51;5.18;;;2.25;;
49416;SDS011;35290;39.550;8.786;2022-11-30T05:40:19;3.63;;;2.67;;
49416;SDS011;35290;39.550;8.786;2022-11-30T05:42:45;4.35;;;2.45;;
49416;SDS011;35290;39.550;8.786;2022-11-30T05:45:10;4.57;;;1.95;;
49416;SDS011;35290;39.550;8.786;2022-11-30T05:47:36;6.72;;;1.85;;
49416;SDS011;35290;39.550;8.786;2022-11-30T05:50:01;4.32;;;1.60;;
49416;SDS011;35290;39.550;8.786;2022-11-30T05:52:27;6.78;;;2.00;;
49416;SDS011;35290;39.550;8.786;2022-11-30T05:54:53;4.38;;;2.22;;
49416;SDS011;35290;39.550;8.786;2022-11-30T05:57:18;10.75;;;4.30;;
49416;SDS011;35290;39.550;8.786;2022-11-30T05:59:43;7.95;;;4.10;;
49416;SDS011;35290;39.550;8.786;2022-11-30T06:02:09;7.15;;;4.07;;
49416;SDS011;35290;39.550;8.786;2022-11-30T06:04:34;6.68;;;3.78;;
49416;SDS011;35290;39.550;8.786;2022-11-30T06:07:00;8.30;;;4.20;;
49416;SDS011;35290;39.550;8.786;2022-11-30T06:09:25;8.75;;;3.42;;
49416;SDS011;35290;39.550;8.786;2022-11-30T06:11:51;6.30;;;2.85;;
49416;SDS011;35290;39.550;8.786;2022-11-30T06:14:17;5.97;;;2.28;;
49416;SDS011;35290;39.550;8.786;2022-11-30T06:16:42;2.45;;;1.42;;
49416;SDS011;35290;39.550;8.786;2022-11-30T06:19:08;6.10;;;1.90;;
49416;SDS011;35290;39.550;8.786;2022-11-30T06:21:33;2.85;;;1.38;;
49416;SDS011;35290;39.550;8.786;2022-11-30T06:23:59;7.60;;;4.03;;
49416;SDS011;35290;39.550;8.786;2022-11-30T06:26:24;11.27;;;5.50;;
49416;SDS011;35290;39.550;8.786;2022-11-30T06:28:52;11.27;;;6.15;;
49416;SDS011;35290;39.550;8.786;2022-11-30T06:31:18;11.57;;;5.15;;
49416;SDS011;35290;39.550;8.786;2022-11-30T06:33:43;10.90;;;4.80;;
49416;SDS011;35290;39.550;8.786;2022-11-30T06:36:09;9.00;;;6.05;;
49416;SDS011;35290;39.550;8.786;2022-11-30T06:38:34;7.40;;;5.05;;
49416;SDS011;35290;39.550;8.786;2022-11-30T06:41:06;11.75;;;7.32;;
49416;SDS011;35290;39.550;8.786;2022-11-30T06:43:36;10.00;;;6.90;;
49416;SDS011;35290;39.550;8.786;2022-11-30T06:46:02;12.48;;;7.20;;
49416;SDS011;35290;39.550;8.786;2022-11-30T06:48:29;10.80;;;6.07;;
49416;SDS011;35290;39.550;8.786;2022-11-30T06:50:54;9.45;;;6.88;;
49416;SDS011;35290;39.550;8.786;2022-11-30T06:53:20;17.35;;;9.98;;
49416;SDS011;35290;39.550;8.786;2022-11-30T06:55:45;14.82;;;9.68;;
49416;SDS011;35290;39.550;8.786;2022-11-30T06:58:11;14.65;;;10.52;;
49416;SDS011;35290;39.550;8.786;2022-11-30T07:00:37;15.80;;;9.30;;
49416;SDS011;35290;39.550;8.786;2022-11-30T07:03:03;13.48;;;7.13;;
49416;SDS011;35290;39.550;8.786;2022-11-30T07:05:29;7.93;;;5.50;;
49416;SDS011;35290;39.550;8.786;2022-11-30T07:07:59;13.80;;;6.82;;
49416;SDS011;35290;39.550;8.786;2022-11-30T07:10:24;12.65;;;7.20;;
49416;SDS011;35290;39.550;8.786;2022-11-30T07:12:50;10.23;;;6.63;;
49416;SDS011;35290;39.550;8.786;2022-11-30T07:15:16;10.32;;;6.68;;
49416;SDS011;35290;39.550;8.786;2022-11-30T07:17:41;12.52;;;7.68;;
49416;SDS011;35290;39.550;8.786;2022-11-30T07:20:07;8.55;;;6.68;;
49416;SDS011;35290;39.550;8.786;2022-11-30T07:22:33;9.85;;;6.38;;
49416;SDS011;35290;39.550;8.786;2022-11-30T07:24:58;10.18;;;6.70;;
49416;SDS011;35290;39.550;8.786;2022-11-30T07:27:42;10.95;;;6.18;;
49416;SDS011;35290;39.550;8.786;2022-11-30T07:30:07;13.18;;;7.78;;
49416;SDS011;35290;39.550;8.786;2022-11-30T07:32:33;16.00;;;8.65;;
49416;SDS011;35290;39.550;8.786;2022-11-30T07:34:59;11.50;;;7.60;;
49416;SDS011;35290;39.550;8.786;2022-11-30T07:37:24;19.35;;;10.82;;
49416;SDS011;35290;39.550;8.786;2022-11-30T07:39:50;21.42;;;13.93;;
49416;SDS011;35290;39.550;8.786;2022-11-30T07:42:16;22.38;;;14.80;;
49416;SDS011;35290;39.550;8.786;2022-11-30T07:44:41;22.98;;;15.38;;
49416;SDS011;35290;39.550;8.786;2022-11-30T07:47:07;25.33;;;14.50;;
49416;SDS011;35290;39.550;8.786;2022-11-30T07:49:33;18.67;;;11.02;;
49416;SDS011;35290;39.550;8.786;2022-11-30T07:51:58;17.70;;;11.02;;
49416;SDS011;35290;39.550;8.786;2022-11-30T07:54:23;13.35;;;7.97;;
49416;SDS011;35290;39.550;8.786;2022-11-30T07:56:49;10.85;;;7.30;;
49416;SDS011;35290;39.550;8.786;2022-11-30T07:59:14;10.80;;;7.13;;
49416;SDS011;35290;39.550;8.786;2022-11-30T08:01:40;13.05;;;7.90;;
49416;SDS011;35290;39.550;8.786;2022-11-30T08:04:06;14.43;;;8.80;;
49416;SDS011;35290;39.550;8.786;2022-11-30T08:06:31;14.85;;;10.52;;
49416;SDS011;35290;39.550;8.786;2022-11-30T08:08:57;25.45;;;15.27;;
49416;SDS011;35290;39.550;8.786;2022-11-30T08:11:26;25.20;;;15.32;;
49416;SDS011;35290;39.550;8.786;2022-11-30T08:13:52;25.95;;;18.17;;
49416;SDS011;35290;39.550;8.786;2022-11-30T08:16:21;24.27;;;14.98;;
49416;SDS011;35290;39.550;8.786;2022-11-30T08:18:48;22.65;;;13.23;;
49416;SDS011;35290;39.550;8.786;2022-11-30T08:21:14;20.33;;;13.48;;
49416;SDS011;35290;39.550;8.786;2022-11-30T08:23:43;17.52;;;10.73;;
49416;SDS011;35290;39.550;8.786;2022-11-30T08:26:14;12.40;;;8.98;;
49416;SDS011;35290;39.550;8.786;2022-11-30T08:28:41;17.70;;;8.50;;
49416;SDS011;35290;39.550;8.786;2022-11-30T08:31:09;13.30;;;8.13;;
49416;SDS011;35290;39.550;8.786;2022-11-30T08:33:37;14.02;;;6.57;;
49416;SDS011;35290;39.550;8.786;2022-11-30T08:38:34;12.80;;;6.70;;
49416;SDS011;35290;39.550;8.786;2022-11-30T08:41:00;16.35;;;6.80;;
49416;SDS011;35290;39.550;8.786;2022-11-30T08:43:26;11.93;;;7.38;;
49416;SDS011;35290;39.550;8.786;2022-11-30T08:45:52;14.10;;;8.43;;
49416;SDS011;35290;39.550;8.786;2022-11-30T08:48:18;13.23;;;8.70;;
49416;SDS011;35290;39.550;8.786;2022-11-30T08:50:44;16.55;;;10.95;;
49416;SDS011;35290;39.550;8.786;2022-11-30T08:53:09;14.07;;;7.90;;
49416;SDS011;35290;39.550;8.786;2022-11-30T08:55:35;10.02;;;6.50;;
49416;SDS011;35290;39.550;8.786;2022-11-30T08:58:00;8.73;;;6.07;;
49416;SDS011;35290;39.550;8.786;2022-11-30T09:00:26;13.85;;;5.95;;
49416;SDS011;35290;39.550;8.786;2022-11-30T09:02:51;12.73;;;6.45;;
49416;SDS011;35290;39.550;8.786;2022-11-30T09:05:17;9.15;;;5.88;;
49416;SDS011;35290;39.550;8.786;2022-11-30T09:07:42;8.25;;;6.13;;
49416;SDS011;35290;39.550;8.786;2022-11-30T09:10:08;10.65;;;6.25;;
49416;SDS011;35290;39.550;8.786;2022-11-30T09:12:35;13.70;;;7.50;;
49416;SDS011;35290;39.550;8.786;2022-11-30T09:15:01;11.60;;;7.10;;
49416;SDS011;35290;39.550;8.786;2022-11-30T09:17:27;12.00;;;6.40;;
49416;SDS011;35290;39.550;8.786;2022-11-30T09:19:52;10.35;;;6.28;;
49416;SDS011;35290;39.550;8.786;2022-11-30T09:22:19;13.70;;;6.75;;
49416;SDS011;35290;39.550;8.786;2022-11-30T09:24:46;12.35;;;6.70;;
49416;SDS011;35290;39.550;8.786;2022-11-30T09:27:11;11.00;;;7.07;;
49416;SDS011;35290;39.550;8.786;2022-11-30T09:29:37;12.43;;;6.70;;
49416;SDS011;35290;39.550;8.786;2022-11-30T09:32:02;10.73;;;6.57;;
49416;SDS011;35290;39.550;8.786;2022-11-30T09:34:28;9.10;;;6.10;;
49416;SDS011;35290;39.550;8.786;2022-11-30T09:36:53;11.98;;;6.43;;
49416;SDS011;35290;39.550;8.786;2022-11-30T09:39:18;11.38;;;6.25;;
49416;SDS011;35290;39.550;8.786;2022-11-30T09:44:34;9.88;;;5.72;;
49416;SDS011;35290;39.550;8.786;2022-11-30T09:49:47;9.07;;;5.10;;
49416;SDS011;35290;39.550;8.786;2022-11-30T09:52:15;11.13;;;5.32;;
49416;SDS011;35290;39.550;8.786;2022-11-30T09:54:43;7.20;;;4.80;;
49416;SDS011;35290;39.550;8.786;2022-11-30T10:00:05;9.27;;;4.82;;
49416;SDS011;35290;39.550;8.786;2022-11-30T10:02:39;12.20;;;5.28;;
49416;SDS011;35290;39.550;8.786;2022-11-30T10:05:15;11.38;;;4.70;;
49416;SDS011;35290;39.550;8.786;2022-11-30T10:15:56;7.37;;;4.70;;
49416;SDS011;35290;39.550;8.786;2022-11-30T10:21:20;9.38;;;4.50;;
49416;SDS011;35290;39.550;8.786;2022-11-30T10:26:35;8.90;;;5.10;;
49416;SDS011;35290;39.550;8.786;2022-11-30T10:29:17;8.68;;;4.55;;
49416;SDS011;35290;39.550;8.786;2022-11-30T10:31:57;7.15;;;4.55;;
49416;SDS011;35290;39.550;8.786;2022-11-30T10:37:15;10.93;;;6.28;;
49416;SDS011;35290;39.550;8.786;2022-11-30T10:40:02;9.07;;;5.57;;
49416;SDS011;35290;39.550;8.786;2022-11-30T10:45:18;7.35;;;5.10;;
49416;SDS011;35290;39.550;8.786;2022-11-30T10:47:47;8.27;;;4.80;;
49416;SDS011;35290;39.550;8.786;2022-11-30T10:50:15;8.20;;;5.22;;
49416;SDS011;35290;39.550;8.786;2022-11-30T10:52:50;9.25;;;4.65;;
49416;SDS011;35290;39.550;8.786;2022-11-30T10:57:43;7.28;;;4.43;;
49416;SDS011;35290;39.550;8.786;2022-11-30T11:00:13;10.52;;;4.90;;
49416;SDS011;35290;39.550;8.786;2022-11-30T11:02:44;10.27;;;4.90;;
49416;SDS011;35290;39.550;8.786;2022-11-30T11:07:49;8.38;;;4.32;;
49416;SDS011;35290;39.550;8.786;2022-11-30T11:10:15;8.85;;;4.57;;
49416;SDS011;35290;39.550;8.786;2022-11-30T11:12:50;5.70;;;4.00;;
49416;SDS011;35290;39.550;8.786;2022-11-30T11:15:27;5.88;;;3.60;;
49416;SDS011;35290;39.550;8.786;2022-11-30T11:18:10;6.25;;;4.03;;
49416;SDS011;35290;39.550;8.786;2022-11-30T11:20:58;8.82;;;4.40;;
49416;SDS011;35290;39.550;8.786;2022-11-30T11:26:00;10.05;;;5.25;;
49416;SDS011;35290;39.550;8.786;2022-11-30T11:28:26;10.63;;;5.93;;
49416;SDS011;35290;39.550;8.786;2022-11-30T11:30:52;11.15;;;5.68;;
49416;SDS011;35290;39.550;8.786;2022-11-30T11:33:20;9.23;;;4.88;;
49416;SDS011;35290;39.550;8.786;2022-11-30T11:41:01;17.27;;;5.53;;
49416;SDS011;35290;39.550;8.786;2022-11-30T11:43:32;8.10;;;4.95;;
49416;SDS011;35290;39.550;8.786;2022-11-30T11:45:59;9.10;;;5.53;;
49416;SDS011;35290;39.550;8.786;2022-11-30T11:48:38;12.20;;;6.55;;
49416;SDS011;35290;39.550;8.786;2022-11-30T11:56:48;11.43;;;6.80;;
49416;SDS011;35290;39.550;8.786;2022-11-30T11:59:16;12.20;;;5.72;;
49416;SDS011;35290;39.550;8.786;2022-11-30T12:01:53;8.52;;;4.93;;
49416;SDS011;35290;39.550;8.786;2022-11-30T12:07:18;8.57;;;5.05;;
49416;SDS011;35290;39.550;8.786;2022-11-30T12:10:00;8.40;;;4.90;;
49416;SDS011;35290;39.550;8.786;2022-11-30T12:12:32;6.63;;;4.10;;
49416;SDS011;35290;39.550;8.786;2022-11-30T12:14:57;7.85;;;4.53;;
49416;SDS011;35290;39.550;8.786;2022-11-30T12:20:34;9.88;;;4.18;;
49416;SDS011;35290;39.550;8.786;2022-11-30T12:31:52;10.05;;;3.88;;
49416;SDS011;35290;39.550;8.786;2022-11-30T12:34:30;7.43;;;4.25;;
49416;SDS011;35290;39.550;8.786;2022-11-30T12:37:08;6.68;;;4.20;;
49416;SDS011;35290;39.550;8.786;2022-11-30T12:40:02;10.00;;;3.97;;
49416;SDS011;35290;39.550;8.786;2022-11-30T12:52:56;14.88;;;6.80;;
49416;SDS011;35290;39.550;8.786;2022-11-30T12:55:37;5.57;;;3.65;;
49416;SDS011;35290;39.550;8.786;2022-11-30T12:58:10;6.13;;;3.60;;
49416;SDS011;35290;39.550;8.786;2022-11-30T13:04:02;36.85;;;19.63;;
49416;SDS011;35290;39.550;8.786;2022-11-30T13:06:39;23.38;;;10.52;;
49416;SDS011;35290;39.550;8.786;2022-11-30T13:09:30;16.85;;;8.75;;
49416;SDS011;35290;39.550;8.786;2022-11-30T13:12:11;8.57;;;4.70;;
49416;SDS011;35290;39.550;8.786;2022-11-30T13:15:00;10.40;;;4.93;;
49416;SDS011;35290;39.550;8.786;2022-11-30T13:17:28;7.25;;;4.03;;
49416;SDS011;35290;39.550;8.786;2022-11-30T13:23:00;7.03;;;4.88;;
49416;SDS011;35290;39.550;8.786;2022-11-30T13:26:01;9.15;;;4.78;;
49416;SDS011;35290;39.550;8.786;2022-11-30T13:32:06;8.38;;;3.95;;
49416;SDS011;35290;39.550;8.786;2022-11-30T13:34:23;8.55;;;4.35;;
49416;SDS011;35290;39.550;8.786;2022-11-30T13:39:25;7.70;;;4.30;;
49416;SDS011;35290;39.550;8.786;2022-11-30T13:44:39;7.68;;;4.40;;
49416;SDS011;35290;39.550;8.786;2022-11-30T13:47:16;7.25;;;4.00;;
49416;SDS011;35290;39.550;8.786;2022-11-30T13:49:43;6.78;;;3.83;;
49416;SDS011;35290;39.550;8.786;2022-11-30T13:52:12;9.48;;;4.10;;
49416;SDS011;35290;39.550;8.786;2022-11-30T14:08:08;7.38;;;4.78;;
49416;SDS011;35290;39.550;8.786;2022-11-30T14:15:29;7.90;;;3.97;;
49416;SDS011;35290;39.550;8.786;2022-11-30T14:23:14;14.05;;;7.55;;
49416;SDS011;35290;39.550;8.786;2022-11-30T14:25:45;10.63;;;6.07;;
49416;SDS011;35290;39.550;8.786;2022-11-30T14:28:13;9.57;;;4.78;;
49416;SDS011;35290;39.550;8.786;2022-11-30T14:30:42;11.93;;;5.07;;
49416;SDS011;35290;39.550;8.786;2022-11-30T14:33:18;16.65;;;6.97;;
49416;SDS011;35290;39.550;8.786;2022-11-30T14:35:50;11.47;;;6.10;;
49416;SDS011;35290;39.550;8.786;2022-11-30T14:38:26;8.23;;;4.70;;
49416;SDS011;35290;39.550;8.786;2022-11-30T14:40:55;8.63;;;5.22;;
49416;SDS011;35290;39.550;8.786;2022-11-30T14:43:21;8.48;;;5.18;;
49416;SDS011;35290;39.550;8.786;2022-11-30T14:45:58;9.65;;;5.82;;
49416;SDS011;35290;39.550;8.786;2022-11-30T14:48:25;11.85;;;5.38;;
49416;SDS011;35290;39.550;8.786;2022-11-30T14:50:51;11.50;;;6.28;;
49416;SDS011;35290;39.550;8.786;2022-11-30T14:53:39;12.02;;;5.70;;
49416;SDS011;35290;39.550;8.786;2022-11-30T14:56:32;10.73;;;5.65;;
49416;SDS011;35290;39.550;8.786;2022-11-30T15:01:42;12.15;;;7.50;;
49416;SDS011;35290;39.550;8.786;2022-11-30T15:04:14;16.58;;;9.38;;
49416;SDS011;35290;39.550;8.786;2022-11-30T15:06:41;14.93;;;7.55;;
49416;SDS011;35290;39.550;8.786;2022-11-30T15:09:15;9.95;;;6.70;;
49416;SDS011;35290;39.550;8.786;2022-11-30T15:11:42;21.10;;;10.95;;
49416;SDS011;35290;39.550;8.786;2022-11-30T15:14:09;11.57;;;7.75;;
49416;SDS011;35290;39.550;8.786;2022-11-30T15:16:35;12.77;;;7.32;;
49416;SDS011;35290;39.550;8.786;2022-11-30T15:19:14;14.65;;;7.32;;
49416;SDS011;35290;39.550;8.786;2022-11-30T15:21:52;11.52;;;6.35;;
49416;SDS011;35290;39.550;8.786;2022-11-30T15:24:19;10.80;;;6.45;;
49416;SDS011;35290;39.550;8.786;2022-11-30T15:26:54;11.48;;;7.57;;
49416;SDS011;35290;39.550;8.786;2022-11-30T15:29:28;13.43;;;8.43;;
49416;SDS011;35290;39.550;8.786;2022-11-30T15:31:56;16.02;;;9.40;;
49416;SDS011;35290;39.550;8.786;2022-11-30T15:34:27;15.77;;;9.18;;
49416;SDS011;35290;39.550;8.786;2022-11-30T15:36:55;19.00;;;9.82;;
49416;SDS011;35290;39.550;8.786;2022-11-30T15:39:23;17.23;;;10.30;;
49416;SDS011;35290;39.550;8.786;2022-11-30T15:41:53;18.52;;;10.65;;
49416;SDS011;35290;39.550;8.786;2022-11-30T15:44:22;19.00;;;10.70;;
49416;SDS011;35290;39.550;8.786;2022-11-30T15:47:04;16.70;;;9.73;;
49416;SDS011;35290;39.550;8.786;2022-11-30T15:49:32;17.42;;;9.77;;
49416;SDS011;35290;39.550;8.786;2022-11-30T15:54:43;15.20;;;8.07;;
49416;SDS011;35290;39.550;8.786;2022-11-30T15:57:09;11.88;;;7.90;;
49416;SDS011;35290;39.550;8.786;2022-11-30T15:59:35;16.35;;;9.07;;
49416;SDS011;35290;39.550;8.786;2022-11-30T16:02:01;17.73;;;10.02;;
49416;SDS011;35290;39.550;8.786;2022-11-30T16:10:04;12.40;;;7.30;;
49416;SDS011;35290;39.550;8.786;2022-11-30T16:12:31;15.52;;;9.32;;
49416;SDS011;35290;39.550;8.786;2022-11-30T16:14:57;17.17;;;9.63;;
49416;SDS011;35290;39.550;8.786;2022-11-30T16:17:23;16.55;;;7.90;;
49416;SDS011;35290;39.550;8.786;2022-11-30T16:19:48;14.82;;;9.90;;
49416;SDS011;35290;39.550;8.786;2022-11-30T16:22:14;15.85;;;10.50;;
49416;SDS011;35290;39.550;8.786;2022-11-30T16:24:40;17.48;;;11.75;;
49416;SDS011;35290;39.550;8.786;2022-11-30T16:27:16;21.17;;;11.30;;
49416;SDS011;35290;39.550;8.786;2022-11-30T16:29:46;16.25;;;10.07;;
49416;SDS011;35290;39.550;8.786;2022-11-30T16:32:12;22.77;;;11.05;;
49416;SDS011;35290;39.550;8.786;2022-11-30T16:34:38;17.17;;;10.65;;
49416;SDS011;35290;39.550;8.786;2022-11-30T16:37:05;17.65;;;10.75;;
49416;SDS011;35290;39.550;8.786;2022-11-30T16:39:32;19.05;;;10.57;;
49416;SDS011;35290;39.550;8.786;2022-11-30T16:41:57;18.33;;;9.82;;
49416;SDS011;35290;39.550;8.786;2022-11-30T16:44:23;21.70;;;11.85;;
49416;SDS011;35290;39.550;8.786;2022-11-30T16:46:49;21.42;;;13.10;;
49416;SDS011;35290;39.550;8.786;2022-11-30T16:49:18;17.65;;;11.93;;
49416;SDS011;35290;39.550;8.786;2022-11-30T16:51:44;28.80;;;18.02;;
49416;SDS011;35290;39.550;8.786;2022-11-30T16:54:13;28.88;;;15.57;;
49416;SDS011;35290;39.550;8.786;2022-11-30T16:56:40;22.77;;;13.60;;
49416;SDS011;35290;39.550;8.786;2022-11-30T16:59:06;26.50;;;14.70;;
49416;SDS011;35290;39.550;8.786;2022-11-30T17:01:41;39.30;;;23.98;;
49416;SDS011;35290;39.550;8.786;2022-11-30T17:06:37;55.45;;;31.42;;
49416;SDS011;35290;39.550;8.786;2022-11-30T17:09:03;53.10;;;31.83;;
49416;SDS011;35290;39.550;8.786;2022-11-30T17:11:31;45.90;;;25.77;;
49416;SDS011;35290;39.550;8.786;2022-11-30T17:13:58;43.00;;;25.02;;
49416;SDS011;35290;39.550;8.786;2022-11-30T17:16:23;31.00;;;19.13;;